createdAt,value
2022-12-03T00:01:27.408Z,12.50
2022-12-03T00:03:55.467Z,13.25
2022-12-03T00:06:24.174Z,12.27
2022-12-03T00:08:52.093Z,11.13
2022-12-03T00:11:19.561Z,11.60
2022-12-03T00:13:48.409Z,11.05
2022-12-03T00:16:15.957Z,11.13
2022-12-03T00:18:43.671Z,9.73
2022-12-03T00:21:11.279Z,9.85
2022-12-03T00:23:42.334Z,10.65
2022-12-03T00:26:10.523Z,10.65
2022-12-03T00:28:38.153Z,10.73
2022-12-03T00:31:05.907Z,9.60
2022-12-03T00:33:33.651Z,10.98
2022-12-03T00:36:01.243Z,10.05
2022-12-03T00:38:28.759Z,9.70
2022-12-03T00:40:56.334Z,10.95
2022-12-03T00:43:24.038Z,10.57
2022-12-03T00:45:51.857Z,10.48
2022-12-03T00:48:19.517Z,10.73
2022-12-03T00:50:47.092Z,11.68
2022-12-03T00:53:14.624Z,9.77
2022-12-03T00:55:42.215Z,9.90
2022-12-03T00:58:09.995Z,9.98
2022-12-03T01:00:38.071Z,10.40
2022-12-03T01:03:05.744Z,10.77
2022-12-03T01:05:34.085Z,9.90
2022-12-03T01:08:01.882Z,10.65
2022-12-03T01:10:29.512Z,10.27
2022-12-03T01:12:57.043Z,10.25
2022-12-03T01:15:24.517Z,10.45
2022-12-03T01:17:54.285Z,8.95
2022-12-03T01:20:22.055Z,9.95
2022-12-03T01:22:50.004Z,10.18
2022-12-03T01:25:17.922Z,9.13
2022-12-03T01:27:45.572Z,9.98
2022-12-03T01:30:13.836Z,9.32
2022-12-03T01:32:41.439Z,9.52
2022-12-03T01:35:09.172Z,9.38
2022-12-03T01:37:36.927Z,9.55
2022-12-03T01:40:05.495Z,8.63
2022-12-03T01:42:36.846Z,9.05
2022-12-03T01:45:05.126Z,9.68
2022-12-03T01:47:35.835Z,8.10
2022-12-03T01:50:27.459Z,8.27
2022-12-03T01:52:58.291Z,7.63
2022-12-03T01:55:26.434Z,8.32
2022-12-03T01:58:00.763Z,7.15
2022-12-03T02:00:29.940Z,7.15
2022-12-03T02:03:07.355Z,7.18
2022-12-03T02:05:34.959Z,7.03
2022-12-03T02:08:02.672Z,7.47
2022-12-03T02:10:37.728Z,8.27
2022-12-03T02:13:08.056Z,7.97
2022-12-03T02:15:36.919Z,7.13
2022-12-03T02:18:04.740Z,7.22
2022-12-03T02:20:37.110Z,8.38
2022-12-03T02:23:16.481Z,7.35
2022-12-03T02:25:45.094Z,7.97
2022-12-03T02:28:12.760Z,8.32
2022-12-03T02:30:40.331Z,6.97
2022-12-03T02:33:07.957Z,7.05
2022-12-03T02:35:37.345Z,7.45
2022-12-03T02:38:19.901Z,9.50
2022-12-03T02:40:49.888Z,8.18
2022-12-03T02:45:55.820Z,7.90
2022-12-03T02:48:29.738Z,6.53
2022-12-03T02:51:01.195Z,8.15
2022-12-03T02:53:36.814Z,7.78
2022-12-03T02:56:05.571Z,7.43
2022-12-03T02:58:33.916Z,7.47
2022-12-03T03:01:03.894Z,7.53
2022-12-03T03:03:32.927Z,6.70
2022-12-03T03:06:02.606Z,7.87
2022-12-03T03:08:30.772Z,7.20
2022-12-03T03:11:01.064Z,8.65
2022-12-03T03:13:31.386Z,6.97
2022-12-03T03:15:59.431Z,8.15
2022-12-03T03:18:27.130Z,7.85
2022-12-03T03:20:55.003Z,7.57
2022-12-03T03:23:24.030Z,7.55
2022-12-03T03:26:06.785Z,8.97
2022-12-03T03:28:49.818Z,7.30
2022-12-03T03:31:21.127Z,7.75
2022-12-03T03:33:50.062Z,6.70
2022-12-03T03:36:18.180Z,7.35
2022-12-03T03:38:46.579Z,7.03
2022-12-03T03:41:15.255Z,7.75
2022-12-03T03:43:44.292Z,7.75
2022-12-03T03:46:12.487Z,7.10
2022-12-03T03:48:42.117Z,6.75
2022-12-03T03:51:10.831Z,8.05
2022-12-03T03:53:44.619Z,7.70
2022-12-03T03:56:12.857Z,7.63
2022-12-03T03:58:40.526Z,7.40
2022-12-03T04:01:09.650Z,6.50
2022-12-03T04:03:37.244Z,7.70
2022-12-03T04:06:05.332Z,6.97
2022-12-03T04:08:33.012Z,7.65
2022-12-03T04:11:19.210Z,7.43
2022-12-03T04:13:46.762Z,7.00
2022-12-03T04:16:14.347Z,8.13
2022-12-03T04:18:45.417Z,6.85
2022-12-03T04:21:33.666Z,7.75
2022-12-03T04:24:01.904Z,7.60
2022-12-03T04:26:49.231Z,8.68
2022-12-03T04:29:19.487Z,6.88
2022-12-03T04:32:05.384Z,6.80
2022-12-03T04:34:52.512Z,7.93
2022-12-03T04:37:20.559Z,7.18
2022-12-03T04:39:48.496Z,7.93
2022-12-03T04:42:16.191Z,7.65
2022-12-03T04:44:43.708Z,7.40
2022-12-03T04:47:18.967Z,7.63
2022-12-03T04:49:48.621Z,8.43
2022-12-03T04:52:18.835Z,7.97
2022-12-03T04:54:46.664Z,7.60
2022-12-03T04:57:14.130Z,7.47
2022-12-03T04:59:42.102Z,7.15
2022-12-03T05:02:09.785Z,7.45
2022-12-03T05:04:37.630Z,8.20
2022-12-03T05:07:05.096Z,7.10
2022-12-03T05:09:33.255Z,7.75
2022-12-03T05:12:01.116Z,7.70
2022-12-03T05:14:28.679Z,7.45
2022-12-03T05:16:56.326Z,7.45
2022-12-03T05:19:43.941Z,6.72
2022-12-03T05:22:11.592Z,6.97
2022-12-03T05:24:39.123Z,8.02
2022-12-03T05:27:06.637Z,7.10
2022-12-03T05:29:34.155Z,7.05
2022-12-03T05:32:01.644Z,5.85
2022-12-03T05:34:29.222Z,10.05
2022-12-03T05:36:56.697Z,6.20
2022-12-03T05:42:12.461Z,5.65
2022-12-03T05:44:40.124Z,5.75
2022-12-03T05:47:07.690Z,5.05
2022-12-03T05:49:35.580Z,6.60
2022-12-03T05:52:03.221Z,5.03
2022-12-03T05:54:30.881Z,5.13
2022-12-03T05:56:58.389Z,5.97
2022-12-03T05:59:25.933Z,4.65
2022-12-03T06:01:53.650Z,4.97
2022-12-03T06:04:21.970Z,4.72
2022-12-03T06:06:50.054Z,5.05
2022-12-03T06:09:17.598Z,5.55
2022-12-03T06:11:45.568Z,4.93
2022-12-03T06:14:13.165Z,4.40
2022-12-03T06:16:41.001Z,6.05
2022-12-03T06:19:08.868Z,4.60
2022-12-03T06:21:36.348Z,5.72
2022-12-03T06:24:04.294Z,4.88
2022-12-03T06:26:31.913Z,5.03
2022-12-03T06:28:59.441Z,5.13
2022-12-03T06:31:27.131Z,4.80
2022-12-03T06:33:54.820Z,4.78
2022-12-03T06:36:23.380Z,5.28
2022-12-03T06:38:51.207Z,5.78
2022-12-03T06:41:19.071Z,5.55
2022-12-03T06:43:46.922Z,5.55
2022-12-03T06:46:15.098Z,5.15
2022-12-03T06:48:42.841Z,5.25
2022-12-03T06:51:10.311Z,5.70
2022-12-03T06:53:38.046Z,6.15
2022-12-03T06:56:06.313Z,4.32
2022-12-03T06:58:34.071Z,6.20
2022-12-03T07:01:01.577Z,5.57
2022-12-03T07:03:29.157Z,6.35
2022-12-03T07:05:56.698Z,5.15
2022-12-03T07:08:24.735Z,6.15
2022-12-03T07:10:52.337Z,5.13
2022-12-03T07:13:20.135Z,4.95
2022-12-03T07:15:47.874Z,4.57
2022-12-03T07:18:15.533Z,5.05
2022-12-03T07:20:43.179Z,4.40
2022-12-03T07:23:10.730Z,4.60
2022-12-03T07:25:38.422Z,4.55
2022-12-03T07:28:06.240Z,4.93
2022-12-03T07:30:34.045Z,4.32
2022-12-03T07:33:01.888Z,4.72
2022-12-03T07:35:29.560Z,4.93
2022-12-03T07:37:57.194Z,4.93
2022-12-03T07:40:24.781Z,4.47
2022-12-03T07:42:52.539Z,5.15
2022-12-03T07:45:20.070Z,4.45
2022-12-03T07:47:47.656Z,4.18
2022-12-03T07:50:15.315Z,6.25
2022-12-03T07:52:42.948Z,6.60
2022-12-03T07:55:11.761Z,4.90
2022-12-03T07:57:40.903Z,5.05
2022-12-03T08:00:08.876Z,6.57
2022-12-03T08:02:36.589Z,5.28
2022-12-03T08:05:04.735Z,5.43
2022-12-03T08:07:32.665Z,6.55
2022-12-03T08:10:00.401Z,6.07
2022-12-03T08:12:50.563Z,5.38
2022-12-03T08:15:21.629Z,6.18
2022-12-03T08:17:58.770Z,5.30
2022-12-03T08:20:37.672Z,6.10
2022-12-03T08:23:13.292Z,6.53
2022-12-03T08:25:41.517Z,6.13
2022-12-03T08:28:14.694Z,6.32
2022-12-03T08:30:56.645Z,6.07
2022-12-03T08:33:36.750Z,5.68
2022-12-03T08:36:18.696Z,6.25
2022-12-03T08:38:51.168Z,6.00
2022-12-03T08:41:41.481Z,5.20
2022-12-03T08:44:38.663Z,6.40
2022-12-03T08:47:09.254Z,6.30
2022-12-03T08:49:37.587Z,6.57
2022-12-03T08:52:16.283Z,6.82
2022-12-03T08:54:47.431Z,6.70
2022-12-03T08:57:29.962Z,5.65
2022-12-03T09:00:16.855Z,6.07
2022-12-03T09:02:47.606Z,6.13
2022-12-03T09:05:33.425Z,7.13
2022-12-03T09:08:01.258Z,6.45
2022-12-03T09:10:28.968Z,7.55
2022-12-03T09:12:56.731Z,8.68
2022-12-03T09:15:24.492Z,7.90
2022-12-03T09:17:52.169Z,6.13
2022-12-03T09:20:19.828Z,6.60
2022-12-03T09:22:47.400Z,7.38
2022-12-03T09:25:16.003Z,6.85
2022-12-03T09:27:43.527Z,6.75
2022-12-03T09:30:11.568Z,6.72
2022-12-03T09:32:39.215Z,7.07
2022-12-03T09:35:07.853Z,8.40
2022-12-03T09:37:35.550Z,7.65
2022-12-03T09:40:03.842Z,7.00
2022-12-03T09:42:31.488Z,6.60
2022-12-03T09:45:00.564Z,6.85
2022-12-03T09:47:29.507Z,6.90
2022-12-03T09:49:58.054Z,6.70
2022-12-03T09:52:31.706Z,7.38
2022-12-03T09:55:05.621Z,6.95
2022-12-03T09:57:33.496Z,7.30
2022-12-03T10:00:01.050Z,7.72
2022-12-03T10:02:30.660Z,7.00
2022-12-03T10:04:58.897Z,8.10
2022-12-03T10:07:26.732Z,8.27
2022-12-03T10:09:54.506Z,7.72
2022-12-03T10:12:24.958Z,7.85
2022-12-03T10:14:53.792Z,7.15
2022-12-03T10:17:21.731Z,5.93
2022-12-03T10:19:49.424Z,6.50
2022-12-03T10:22:16.964Z,5.88
2022-12-03T10:24:45.036Z,5.65
2022-12-03T10:27:30.508Z,5.45
2022-12-03T10:30:00.463Z,5.45
2022-12-03T10:35:19.136Z,4.85
2022-12-03T10:38:26.606Z,4.63
2022-12-03T10:40:54.476Z,4.93
2022-12-03T10:43:24.051Z,4.25
2022-12-03T10:46:11.622Z,3.92
2022-12-03T10:48:39.350Z,4.20
2022-12-03T10:51:15.520Z,3.92
2022-12-03T10:53:45.893Z,4.18
2022-12-03T10:56:20.974Z,3.13
2022-12-03T10:58:48.736Z,3.42
2022-12-03T11:01:25.425Z,2.40
2022-12-03T11:03:55.518Z,3.15
2022-12-03T11:08:58.467Z,2.45
2022-12-03T11:11:29.362Z,2.90
2022-12-03T11:13:59.190Z,2.78
2022-12-03T11:16:42.081Z,2.22
2022-12-03T11:19:12.778Z,2.42
2022-12-03T11:22:05.195Z,1.65
2022-12-03T11:24:38.428Z,1.65
2022-12-03T11:27:16.883Z,1.00
2022-12-03T11:29:59.592Z,1.40
2022-12-03T11:33:00.106Z,2.10
2022-12-03T11:35:36.242Z,1.30
2022-12-03T11:38:48.916Z,1.30
2022-12-03T11:41:30.481Z,1.40
2022-12-03T11:44:24.754Z,1.15
2022-12-03T11:46:53.247Z,1.20
2022-12-03T11:49:46.431Z,1.58
2022-12-03T11:52:39.972Z,1.10
2022-12-03T11:55:33.156Z,2.47
2022-12-03T11:58:06.271Z,1.20
2022-12-03T12:00:33.827Z,1.20
2022-12-03T12:03:01.542Z,2.17
2022-12-03T12:05:33.825Z,1.20
2022-12-03T12:08:02.706Z,1.02
2022-12-03T12:10:49.190Z,1.45
2022-12-03T12:13:50.249Z,1.10
2022-12-03T12:16:37.816Z,1.23
2022-12-03T12:19:43.262Z,1.38
2022-12-03T12:22:27.535Z,2.50
2022-12-03T12:25:03.471Z,1.48
2022-12-03T12:27:35.853Z,1.02
2022-12-03T12:30:18.226Z,1.17
2022-12-03T12:32:50.469Z,1.48
2022-12-03T12:35:26.603Z,1.13
2022-12-03T12:38:24.316Z,1.42
2022-12-03T12:40:52.600Z,1.05
2022-12-03T12:43:27.989Z,1.40
2022-12-03T12:46:13.555Z,1.38
2022-12-03T12:48:47.797Z,1.48
2022-12-03T12:51:20.694Z,1.40
2022-12-03T12:53:49.883Z,1.52
2022-12-03T12:56:23.320Z,2.23
2022-12-03T12:58:51.464Z,1.23
2022-12-03T13:01:30.559Z,1.23
2022-12-03T13:03:59.694Z,2.03
2022-12-03T13:06:30.293Z,2.22
2022-12-03T13:09:01.106Z,1.60
2022-12-03T13:11:52.679Z,1.52
2022-12-03T13:14:23.113Z,1.88
2022-12-03T13:16:52.994Z,1.65
2022-12-03T13:19:28.889Z,1.83
2022-12-03T13:22:00.043Z,1.58
2022-12-03T13:24:37.667Z,1.77
2022-12-03T13:27:20.571Z,1.77
2022-12-03T13:29:51.243Z,2.00
2022-12-03T13:32:27.675Z,2.33
2022-12-03T13:35:18.461Z,2.45
2022-12-03T13:37:46.244Z,1.55
2022-12-03T13:40:35.166Z,1.88
2022-12-03T13:43:18.646Z,1.20
2022-12-03T13:45:52.351Z,1.42
2022-12-03T13:48:29.551Z,1.30
2022-12-03T13:50:58.058Z,1.42
2022-12-03T13:53:37.511Z,2.80
2022-12-03T13:56:23.868Z,1.92
2022-12-03T13:58:51.424Z,2.15
2022-12-03T14:01:18.951Z,1.80
2022-12-03T14:03:46.661Z,1.90
2022-12-03T14:06:14.537Z,1.60
2022-12-03T14:08:42.178Z,1.88
2022-12-03T14:11:29.710Z,1.90
2022-12-03T14:13:57.391Z,2.25
2022-12-03T14:16:25.186Z,1.92
2022-12-03T14:18:52.740Z,2.88
2022-12-03T14:21:20.236Z,1.73
2022-12-03T14:23:47.822Z,1.73
2022-12-03T14:26:15.867Z,2.28
2022-12-03T14:28:43.615Z,2.60
2022-12-03T14:31:11.135Z,2.08
2022-12-03T14:33:38.766Z,2.20
2022-12-03T14:36:06.590Z,2.25
2022-12-03T14:38:34.159Z,2.20
2022-12-03T14:41:01.901Z,2.65
2022-12-03T14:43:29.786Z,1.83
2022-12-03T14:45:59.877Z,2.30
2022-12-03T14:48:28.246Z,1.88
2022-12-03T14:50:55.802Z,2.15
2022-12-03T14:53:27.189Z,2.60
2022-12-03T14:55:55.979Z,2.97
2022-12-03T14:58:23.759Z,3.03
2022-12-03T15:00:51.291Z,3.63
2022-12-03T15:03:22.584Z,3.10
2022-12-03T15:05:50.127Z,3.47
2022-12-03T15:08:17.771Z,2.53
2022-12-03T15:10:45.658Z,2.67
2022-12-03T15:13:14.150Z,2.70
2022-12-03T15:15:41.789Z,2.30
2022-12-03T15:18:09.359Z,2.28
2022-12-03T15:20:38.418Z,2.85
2022-12-03T15:23:08.859Z,3.03
2022-12-03T15:25:40.522Z,2.88
2022-12-03T15:28:08.192Z,4.30
2022-12-03T15:30:35.889Z,2.90
2022-12-03T15:33:04.000Z,2.97
2022-12-03T15:35:32.345Z,2.55
2022-12-03T15:38:00.171Z,3.10
2022-12-03T15:40:28.264Z,3.03
2022-12-03T15:42:55.932Z,2.85
2022-12-03T15:45:23.565Z,3.58
2022-12-03T15:47:51.831Z,2.80
2022-12-03T15:50:19.472Z,3.53
2022-12-03T15:52:47.398Z,4.70
2022-12-03T15:55:15.179Z,4.50
2022-12-03T15:57:42.995Z,4.40
2022-12-03T16:00:13.390Z,5.05
2022-12-03T16:02:42.728Z,4.90
2022-12-03T16:05:13.151Z,4.60
2022-12-03T16:07:40.926Z,3.97
2022-12-03T16:10:12.676Z,4.15
2022-12-03T16:12:43.043Z,3.75
2022-12-03T16:15:10.769Z,3.72
2022-12-03T16:17:41.071Z,3.58
2022-12-03T16:20:08.891Z,3.92
2022-12-03T16:22:36.409Z,4.60
2022-12-03T16:25:05.182Z,3.65
2022-12-03T16:27:33.511Z,4.13
2022-12-03T16:30:02.114Z,3.92
2022-12-03T16:32:30.008Z,3.65
2022-12-03T16:34:57.901Z,4.07
2022-12-03T16:37:25.660Z,4.38
2022-12-03T16:39:53.465Z,4.05
2022-12-03T16:42:21.396Z,3.88
2022-12-03T16:45:14.852Z,3.72
2022-12-03T16:47:42.423Z,3.85
2022-12-03T16:50:14.568Z,3.88
2022-12-03T16:52:47.357Z,5.57
2022-12-03T16:55:14.936Z,6.20
2022-12-03T16:57:42.735Z,5.25
2022-12-03T17:00:11.032Z,5.75
2022-12-03T17:02:38.584Z,4.43
2022-12-03T17:05:06.488Z,3.95
2022-12-03T17:07:34.229Z,5.55
2022-12-03T17:10:02.469Z,5.00
2022-12-03T17:12:54.180Z,5.30
2022-12-03T17:15:18.756Z,5.63
2022-12-03T17:17:46.524Z,4.65
2022-12-03T17:20:14.851Z,4.90
2022-12-03T17:22:42.501Z,5.00
2022-12-03T17:25:11.009Z,4.25
2022-12-03T17:27:44.880Z,4.10
2022-12-03T17:30:13.686Z,4.32
2022-12-03T17:32:41.448Z,4.97
2022-12-03T17:35:10.818Z,4.85
2022-12-03T17:37:40.431Z,4.95
2022-12-03T17:40:10.842Z,4.38
2022-12-03T17:42:38.620Z,5.15
2022-12-03T17:45:06.855Z,4.85
2022-12-03T17:47:34.321Z,4.68
2022-12-03T17:50:02.128Z,4.82
2022-12-03T17:52:29.814Z,3.60
2022-12-03T17:55:19.216Z,3.88
2022-12-03T17:57:45.295Z,4.32
2022-12-03T18:00:13.408Z,4.68
2022-12-03T18:02:42.556Z,3.25
2022-12-03T18:05:10.654Z,4.43
2022-12-03T18:07:38.206Z,3.95
2022-12-03T18:10:06.867Z,3.90
2022-12-03T18:12:35.449Z,5.05
2022-12-03T18:15:03.182Z,4.82
2022-12-03T18:17:30.867Z,5.88
2022-12-03T18:19:58.601Z,4.50
2022-12-03T18:22:28.148Z,5.07
2022-12-03T18:24:55.907Z,6.28
2022-12-03T18:27:23.951Z,6.72
2022-12-03T18:29:51.740Z,5.07
2022-12-03T18:32:29.298Z,5.90
2022-12-03T18:34:57.659Z,4.68
2022-12-03T18:37:29.931Z,5.07
2022-12-03T18:39:58.458Z,5.03
2022-12-03T18:42:26.500Z,4.60
2022-12-03T18:44:56.031Z,4.35
2022-12-03T18:47:31.040Z,4.40
2022-12-03T18:49:58.905Z,4.82
2022-12-03T18:52:26.640Z,5.13
2022-12-03T18:54:55.410Z,4.03
2022-12-03T18:57:23.243Z,4.50
2022-12-03T18:59:50.965Z,4.20
2022-12-03T19:05:09.628Z,5.45
2022-12-03T19:07:37.536Z,5.75
2022-12-03T19:10:06.064Z,5.80
2022-12-03T19:12:33.813Z,5.28
2022-12-03T19:15:02.053Z,5.40
2022-12-03T19:17:29.764Z,5.82
2022-12-03T19:19:57.651Z,4.40
2022-12-03T19:22:25.457Z,3.90
2022-12-03T19:24:53.177Z,6.20
2022-12-03T19:27:20.712Z,4.75
2022-12-03T19:29:49.273Z,2.80
2022-12-03T19:32:16.927Z,3.20
2022-12-03T19:34:44.522Z,4.88
2022-12-03T19:37:12.091Z,4.50
2022-12-03T19:39:39.687Z,5.32
2022-12-03T19:42:07.439Z,4.22
2022-12-03T19:44:35.616Z,3.95
2022-12-03T19:47:03.327Z,4.10
2022-12-03T19:49:33.994Z,3.47
2022-12-03T19:52:01.721Z,2.92
2022-12-03T19:54:29.459Z,2.92
2022-12-03T19:56:57.506Z,2.33
2022-12-03T19:59:25.017Z,3.13
2022-12-03T20:01:52.961Z,2.00
2022-12-03T20:04:20.581Z,3.55
2022-12-03T20:06:48.366Z,2.08
2022-12-03T20:09:17.949Z,2.40
2022-12-03T20:11:46.461Z,2.47
2022-12-03T20:14:16.043Z,2.53
2022-12-03T20:16:45.303Z,2.30
2022-12-03T20:19:14.943Z,2.53
2022-12-03T20:21:44.365Z,2.05
2022-12-03T20:24:16.712Z,2.47
2022-12-03T20:26:44.645Z,4.95
2022-12-03T20:29:12.443Z,2.95
2022-12-03T20:31:40.088Z,5.20
2022-12-03T20:34:08.133Z,3.85
2022-12-03T20:36:36.049Z,3.30
2022-12-03T20:39:06.179Z,3.38
2022-12-03T20:44:07.437Z,4.10
2022-12-03T20:46:35.297Z,3.40
2022-12-03T20:49:03.754Z,3.60
2022-12-03T20:51:31.688Z,3.03
2022-12-03T20:54:00.446Z,5.47
2022-12-03T20:56:31.422Z,4.18
2022-12-03T20:59:14.873Z,4.40
2022-12-03T21:01:44.135Z,6.05
2022-12-03T21:04:13.606Z,6.03
2022-12-03T21:06:42.410Z,3.47
2022-12-03T21:09:11.668Z,3.42
2022-12-03T21:11:42.346Z,3.85
2022-12-03T21:14:11.214Z,5.65
2022-12-03T21:19:30.469Z,6.75
2022-12-03T21:21:58.052Z,4.50
2022-12-03T21:24:25.680Z,2.97
2022-12-03T21:26:53.276Z,3.95
2022-12-03T21:29:20.882Z,4.07
2022-12-03T21:31:48.392Z,3.80
2022-12-03T21:34:16.263Z,5.68
2022-12-03T21:36:43.841Z,4.55
2022-12-03T21:39:11.442Z,4.55
2022-12-03T21:41:39.175Z,3.05
2022-12-03T21:44:06.821Z,3.10
2022-12-03T21:47:12.690Z,3.50
2022-12-03T21:49:22.795Z,4.10
2022-12-03T21:51:50.478Z,3.13
2022-12-03T21:54:18.445Z,2.92
2022-12-03T21:56:46.049Z,3.92
2022-12-03T21:59:13.551Z,3.35
2022-12-03T22:01:45.697Z,3.50
2022-12-03T22:04:14.865Z,4.60
2022-12-03T22:06:42.373Z,4.35
2022-12-03T22:09:10.146Z,6.75
2022-12-03T22:11:37.700Z,4.30
2022-12-03T22:14:06.888Z,4.45
2022-12-03T22:16:34.774Z,4.72
2022-12-03T22:19:02.532Z,4.40
2022-12-03T22:21:30.367Z,4.82
2022-12-03T22:23:57.854Z,4.30
2022-12-03T22:26:25.586Z,3.50
2022-12-03T22:28:53.230Z,3.90
2022-12-03T22:31:20.937Z,3.40
2022-12-03T22:33:49.630Z,3.65
2022-12-03T22:36:21.542Z,3.10
2022-12-03T22:38:50.976Z,3.15
2022-12-03T22:41:19.849Z,3.50
2022-12-03T22:43:48.459Z,3.75
2022-12-03T22:46:16.703Z,2.95
2022-12-03T22:48:45.989Z,2.97
2022-12-03T22:51:19.893Z,2.85
2022-12-03T22:53:48.398Z,3.60
2022-12-03T22:56:17.257Z,3.05
2022-12-03T22:58:45.092Z,2.58
2022-12-03T23:01:28.731Z,2.88
2022-12-03T23:03:56.610Z,1.95
2022-12-03T23:06:24.817Z,1.92
2022-12-03T23:08:52.597Z,2.67
2022-12-03T23:11:20.673Z,1.52
2022-12-03T23:13:48.724Z,1.65
2022-12-03T23:16:22.612Z,1.67
2022-12-03T23:18:50.713Z,2.17
2022-12-03T23:21:29.439Z,2.30
2022-12-03T23:23:59.059Z,2.58
2022-12-03T23:26:27.382Z,2.08
2022-12-03T23:28:55.222Z,2.70
2022-12-03T23:31:28.777Z,3.03
2022-12-03T23:33:58.408Z,3.08
2022-12-03T23:36:28.250Z,2.53
2022-12-03T23:38:56.094Z,2.53
2022-12-03T23:41:24.586Z,2.83
2022-12-03T23:43:52.315Z,3.33
2022-12-03T23:46:22.902Z,4.32
2022-12-03T23:48:51.232Z,4.70
2022-12-03T23:51:24.142Z,3.60
2022-12-03T23:53:53.257Z,4.05
2022-12-03T23:56:24.171Z,3.65
2022-12-03T23:58:52.005Z,3.83
